Time;durP1;ratioP1;P1;durP2;ratioP2;P2;SDS_P1;SDS_P2;PMS_P1;PMS_P2;Temp;Humidity;BMP_temperature;BMP_pressure;BME280_temperature;BME280_humidity;BME280_pressure;Samples;Min_cycle;Max_cycle;Signal;HPM_P1;HPM_P2
2021/03/24 00:00:48;;;;;;;49.03;27.43;;;5.90;99.90;;;;;;5068027;28;20799;-81
2021/03/24 00:03:15;;;;;;;42.83;26.20;;;5.90;99.90;;;;;;5067540;28;20232;-81
2021/03/24 00:05:44;;;;;;;45.57;27.00;;;5.90;99.90;;;;;;5066386;28;20254;-82
2021/03/24 00:08:11;;;;;;;46.37;28.33;;;5.90;99.90;;;;;;5069773;28;20189;-81
2021/03/24 00:10:38;;;;;;;44.83;26.17;;;5.90;99.90;;;;;;5069904;28;20205;-83
2021/03/24 00:13:07;;;;;;;44.07;27.70;;;5.80;99.90;;;;;;5069274;28;20205;-81
2021/03/24 00:15:35;;;;;;;44.50;25.90;;;5.80;99.90;;;;;;5068550;28;20580;-77
2021/03/24 00:18:02;;;;;;;41.60;25.27;;;5.80;99.90;;;;;;5087534;28;20287;-78
2021/03/24 00:20:34;;;;;;;40.87;26.67;;;5.80;99.90;;;;;;5088934;28;20193;-78
2021/03/24 00:23:00;;;;;;;42.53;27.00;;;5.80;99.90;;;;;;5089502;28;20586;-79
2021/03/24 00:25:27;;;;;;;39.27;26.17;;;5.80;99.90;;;;;;5089749;28;20605;-82
2021/03/24 00:27:54;;;;;;;43.73;26.80;;;5.80;99.90;;;;;;5090476;28;20581;-81
2021/03/24 00:30:22;;;;;;;41.50;26.03;;;5.70;99.90;;;;;;5089425;28;20318;-79
2021/03/24 00:32:49;;;;;;;41.57;26.80;;;5.80;99.90;;;;;;5071367;28;20212;-79
2021/03/24 00:35:17;;;;;;;45.47;25.90;;;5.80;99.90;;;;;;5069095;28;20205;-78
2021/03/24 00:37:43;;;;;;;41.87;25.67;;;5.80;99.90;;;;;;5063344;28;20596;-82
2021/03/24 00:40:12;;;;;;;39.73;26.07;;;5.80;99.90;;;;;;5067294;28;20215;-80
2021/03/24 00:42:38;;;;;;;40.00;26.53;;;5.80;99.90;;;;;;5069031;28;20229;-81
2021/03/24 00:45:06;;;;;;;42.50;26.50;;;5.80;99.90;;;;;;5069083;28;20197;-83
2021/03/24 00:47:33;;;;;;;43.47;26.87;;;5.80;99.90;;;;;;5067200;28;20221;-78
2021/03/24 00:49:59;;;;;;;43.50;27.10;;;5.80;99.90;;;;;;5068268;28;20201;-78
2021/03/24 00:52:26;;;;;;;40.30;25.97;;;5.80;99.90;;;;;;5068006;28;20233;-81
2021/03/24 00:54:53;;;;;;;43.07;25.47;;;5.70;99.90;;;;;;5067730;28;20875;-81
2021/03/24 00:57:19;;;;;;;42.90;26.53;;;5.70;99.90;;;;;;5067916;28;20204;-82
2021/03/24 00:59:45;;;;;;;44.57;26.13;;;5.70;99.90;;;;;;5068232;28;20216;-78
2021/03/24 01:02:12;;;;;;;45.13;27.23;;;5.60;99.90;;;;;;5066456;28;20712;-81
2021/03/24 01:04:38;;;;;;;39.93;26.43;;;5.60;99.90;;;;;;5067968;28;20248;-82
2021/03/24 01:07:05;;;;;;;36.27;24.97;;;5.60;99.90;;;;;;5070842;28;20220;-82
2021/03/24 01:09:32;;;;;;;37.57;24.80;;;5.70;99.90;;;;;;5068779;28;20193;-82
2021/03/24 01:11:59;;;;;;;47.00;25.70;;;5.70;99.90;;;;;;5069555;28;20224;-78
2021/03/24 01:14:25;;;;;;;44.00;27.53;;;5.70;99.90;;;;;;5070267;28;20220;-83
2021/03/24 01:16:51;;;;;;;39.43;25.03;;;5.70;99.90;;;;;;5070676;28;20201;-82
2021/03/24 01:19:17;;;;;;;39.87;24.57;;;5.70;99.90;;;;;;5068388;28;20895;-82
2021/03/24 01:21:44;;;;;;;40.60;26.13;;;5.70;99.90;;;;;;5068627;28;20247;-79
2021/03/24 01:24:10;;;;;;;44.27;25.03;;;5.70;99.90;;;;;;5068353;28;20200;-80
2021/03/24 01:26:37;;;;;;;44.50;24.97;;;5.60;99.90;;;;;;5069685;28;20213;-82
2021/03/24 01:29:05;;;;;;;39.77;25.37;;;5.60;99.90;;;;;;5069636;28;20220;-81
2021/03/24 01:31:32;;;;;;;39.20;26.17;;;5.60;99.90;;;;;;5068957;28;20247;-78
2021/03/24 01:34:00;;;;;;;37.50;25.27;;;5.60;99.90;;;;;;5068625;28;20593;-82
2021/03/24 01:36:28;;;;;;;45.87;27.57;;;5.60;99.90;;;;;;5068464;28;20267;-82
2021/03/24 01:38:54;;;;;;;43.00;26.87;;;5.60;99.90;;;;;;5069285;28;20674;-79
2021/03/24 01:41:24;;;;;;;45.67;27.60;;;5.60;99.90;;;;;;5068141;28;20213;-77
2021/03/24 01:43:51;;;;;;;43.17;26.40;;;5.70;99.90;;;;;;5067817;28;20306;-78
2021/03/24 01:46:34;;;;;;;46.37;27.83;;;5.70;99.90;;;;;;5069009;28;20212;-81
2021/03/24 01:49:05;;;;;;;44.50;27.90;;;5.60;99.90;;;;;;5069551;28;20208;-77
2021/03/24 01:51:35;;;;;;;38.53;24.83;;;5.60;99.90;;;;;;5067244;28;20244;-77
2021/03/24 01:54:03;;;;;;;44.83;28.80;;;5.60;99.90;;;;;;5067669;28;20914;-82
2021/03/24 01:56:31;;;;;;;41.17;26.20;;;5.50;99.90;;;;;;5066874;28;20193;-82
2021/03/24 01:58:59;;;;;;;44.30;27.40;;;5.50;99.90;;;;;;5067258;28;20215;-82
2021/03/24 02:01:25;;;;;;;41.97;25.87;;;5.50;99.90;;;;;;5066331;28;20615;-80
2021/03/24 02:03:53;;;;;;;48.73;29.97;;;5.50;99.90;;;;;;5066080;28;20676;-81
2021/03/24 02:06:24;;;;;;;48.07;28.53;;;5.50;99.90;;;;;;5067834;28;20209;-80
2021/03/24 02:08:59;;;;;;;49.47;29.90;;;5.50;99.90;;;;;;5086943;28;20634;-79
2021/03/24 02:11:32;;;;;;;50.47;30.43;;;5.50;99.90;;;;;;5086535;28;20227;-77
2021/03/24 02:14:07;;;;;;;45.07;30.30;;;5.50;99.90;;;;;;5085265;28;20204;-78
2021/03/24 02:16:38;;;;;;;49.73;30.17;;;5.50;99.90;;;;;;5067891;28;20188;-79
2021/03/24 02:19:14;;;;;;;45.67;29.93;;;5.50;99.90;;;;;;5065077;28;20192;-78
2021/03/24 02:21:42;;;;;;;50.07;31.67;;;5.60;99.90;;;;;;5069238;28;20225;-81
2021/03/24 02:24:18;;;;;;;57.63;32.97;;;5.60;99.90;;;;;;5068864;28;20205;-82
2021/03/24 02:26:50;;;;;;;55.13;33.07;;;5.60;99.90;;;;;;5067923;28;20196;-80
2021/03/24 02:29:21;;;;;;;51.10;31.60;;;5.70;99.90;;;;;;5065590;28;20212;-78
2021/03/24 02:31:49;;;;;;;51.37;31.93;;;5.70;99.90;;;;;;5064893;28;20247;-81
2021/03/24 02:34:22;;;;;;;50.33;31.00;;;5.70;99.90;;;;;;5066191;28;20197;-79
2021/03/24 02:36:51;;;;;;;58.33;34.60;;;5.70;99.90;;;;;;5083742;28;20215;-81
2021/03/24 02:39:20;;;;;;;50.00;31.83;;;5.70;99.90;;;;;;5085594;28;20204;-83
2021/03/24 02:41:47;;;;;;;51.13;32.83;;;5.70;99.90;;;;;;5066752;28;20275;-84
2021/03/24 02:44:14;;;;;;;53.07;32.23;;;5.70;99.90;;;;;;5068131;28;20201;-83
2021/03/24 02:46:43;;;;;;;54.87;32.47;;;5.80;99.90;;;;;;5083883;28;20266;-81
2021/03/24 02:49:11;;;;;;;54.97;31.73;;;5.80;99.90;;;;;;5087686;28;20201;-78
2021/03/24 02:51:39;;;;;;;50.03;33.17;;;5.70;99.90;;;;;;5087231;28;20228;-80
2021/03/24 02:54:11;;;;;;;53.93;33.37;;;5.70;99.90;;;;;;5081939;28;20228;-77
2021/03/24 02:56:38;;;;;;;54.67;32.37;;;5.60;99.90;;;;;;5066988;28;20213;-80
2021/03/24 02:59:05;;;;;;;58.63;33.37;;;5.60;99.90;;;;;;5068048;28;20216;-81
2021/03/24 03:01:39;;;;;;;56.90;33.60;;;5.60;99.90;;;;;;5066023;28;20557;-82
2021/03/24 03:04:12;;;;;;;53.50;32.73;;;5.60;99.90;;;;;;5067613;28;20871;-81
2021/03/24 03:06:40;;;;;;;59.47;34.27;;;5.60;99.90;;;;;;5079602;28;20201;-78
2021/03/24 03:09:12;;;;;;;54.33;33.03;;;5.60;99.90;;;;;;5067445;28;20347;-82
2021/03/24 03:11:45;;;;;;;53.13;33.93;;;5.50;99.90;;;;;;5084483;28;20220;-82
2021/03/24 03:14:17;;;;;;;53.77;30.97;;;5.50;99.90;;;;;;5083589;28;20208;-82
2021/03/24 03:16:47;;;;;;;60.30;34.40;;;5.50;99.90;;;;;;5069748;28;20193;-82
2021/03/24 03:19:21;;;;;;;57.23;34.40;;;5.50;99.90;;;;;;5068692;28;20212;-83
2021/03/24 03:21:52;;;;;;;60.50;32.90;;;5.50;99.90;;;;;;5069267;28;20275;-82
2021/03/24 03:24:21;;;;;;;55.90;33.67;;;5.50;99.90;;;;;;5068983;28;20239;-84
2021/03/24 03:26:49;;;;;;;55.20;33.63;;;5.50;99.90;;;;;;5068057;28;20288;-78
2021/03/24 03:29:18;;;;;;;54.70;33.47;;;5.50;99.90;;;;;;5069061;28;20212;-80
2021/03/24 03:31:47;;;;;;;59.27;32.93;;;5.50;99.90;;;;;;5069171;28;20200;-82
2021/03/24 03:34:19;;;;;;;56.00;34.83;;;5.40;99.90;;;;;;5068114;28;20197;-77
2021/03/24 03:36:48;;;;;;;58.27;34.20;;;5.40;99.90;;;;;;5065868;28;20201;-83
2021/03/24 03:39:17;;;;;;;62.40;36.10;;;5.40;99.90;;;;;;5068679;28;20193;-83
2021/03/24 03:41:44;;;;;;;61.60;36.73;;;5.50;99.90;;;;;;5067079;28;20251;-79
2021/03/24 03:44:15;;;;;;;61.93;35.50;;;5.40;99.90;;;;;;5065647;28;20208;-81
2021/03/24 03:46:48;;;;;;;69.17;37.33;;;5.40;99.90;;;;;;5063151;28;20870;-81
2021/03/24 03:49:16;;;;;;;67.70;37.10;;;5.50;99.90;;;;;;5064508;28;20510;-81
2021/03/24 03:51:55;;;;;;;60.00;35.97;;;5.40;99.90;;;;;;5083656;28;20240;-80
2021/03/24 03:54:27;;;;;;;71.90;38.33;;;5.40;99.90;;;;;;5085734;28;20242;-81
2021/03/24 03:57:02;;;;;;;64.53;36.53;;;5.40;99.90;;;;;;5087461;28;20188;-81
2021/03/24 03:59:35;;;;;;;61.97;36.40;;;5.40;99.90;;;;;;5076070;28;20596;-83
2021/03/24 04:02:04;;;;;;;62.37;35.30;;;5.40;99.90;;;;;;5086162;28;20241;-82
2021/03/24 04:04:37;;;;;;;58.50;35.47;;;5.30;99.90;;;;;;5086992;28;20362;-83
2021/03/24 04:07:09;;;;;;;64.40;35.73;;;5.30;99.90;;;;;;5082040;28;20212;-81
2021/03/24 04:09:37;;;;;;;59.80;34.80;;;5.30;99.90;;;;;;5082367;28;20559;-81
2021/03/24 04:12:06;;;;;;;61.80;37.67;;;5.20;99.90;;;;;;5074148;28;20204;-83
2021/03/24 04:14:33;;;;;;;64.20;37.47;;;5.20;99.90;;;;;;5063291;28;20208;-82
2021/03/24 04:17:00;;;;;;;63.70;37.87;;;5.20;99.90;;;;;;5063688;28;20209;-84
2021/03/24 04:19:32;;;;;;;72.03;40.93;;;5.20;99.90;;;;;;5070601;28;20205;-83
2021/03/24 04:22:02;;;;;;;67.30;37.07;;;5.20;99.90;;;;;;5083538;28;20278;-83
2021/03/24 04:24:32;;;;;;;66.47;38.77;;;5.20;99.90;;;;;;5066074;28;20213;-79
2021/03/24 04:27:01;;;;;;;72.17;39.53;;;5.20;99.90;;;;;;5064126;28;20202;-78
2021/03/24 04:29:32;;;;;;;64.33;36.80;;;5.10;99.90;;;;;;5063622;28;20220;-80
2021/03/24 04:32:01;;;;;;;68.70;38.40;;;5.10;99.90;;;;;;5063034;28;20228;-78
2021/03/24 04:34:29;;;;;;;68.60;37.80;;;5.10;99.90;;;;;;5065649;28;20221;-83
2021/03/24 04:37:02;;;;;;;71.60;38.73;;;5.00;99.90;;;;;;5066038;28;20255;-82
2021/03/24 04:39:33;;;;;;;67.43;41.03;;;5.00;99.90;;;;;;5064247;28;20197;-81
2021/03/24 04:42:02;;;;;;;63.03;38.00;;;4.90;99.90;;;;;;5065573;28;20617;-81
2021/03/24 04:44:33;;;;;;;78.10;41.23;;;4.90;99.90;;;;;;5065044;28;20210;-80
2021/03/24 04:47:06;;;;;;;73.00;40.37;;;4.90;99.90;;;;;;5064934;28;20579;-79
2021/03/24 04:49:38;;;;;;;71.53;40.90;;;4.90;99.90;;;;;;5080889;28;20216;-79
2021/03/24 04:52:07;;;;;;;67.93;37.20;;;4.90;99.90;;;;;;5084391;28;20232;-79
2021/03/24 04:54:37;;;;;;;64.23;37.50;;;4.90;99.90;;;;;;5086848;28;20201;-80
2021/03/24 04:57:07;;;;;;;67.77;38.70;;;4.80;99.90;;;;;;5087288;28;20740;-80
2021/03/24 04:59:36;;;;;;;70.50;39.97;;;4.80;99.90;;;;;;5079142;28;20197;-79
2021/03/24 05:02:11;;;;;;;73.13;41.70;;;4.70;99.90;;;;;;5069203;28;20233;-79
2021/03/24 05:04:42;;;;;;;74.40;39.47;;;4.80;99.90;;;;;;5074115;28;20566;-82
2021/03/24 05:07:15;;;;;;;72.47;42.27;;;4.70;99.90;;;;;;5081720;28;20201;-83
2021/03/24 05:09:43;;;;;;;68.87;38.47;;;4.70;99.90;;;;;;5067583;28;20197;-80
2021/03/24 05:12:15;;;;;;;66.90;38.40;;;4.70;99.90;;;;;;5066628;28;20589;-80
2021/03/24 05:14:44;;;;;;;69.63;39.03;;;4.70;99.90;;;;;;5066190;28;20971;-80
2021/03/24 05:17:18;;;;;;;73.67;40.60;;;4.60;99.90;;;;;;5069069;28;20228;-78
2021/03/24 05:19:45;;;;;;;68.67;38.83;;;4.60;99.90;;;;;;5087013;28;20200;-78
2021/03/24 05:22:26;;;;;;;73.83;40.50;;;4.60;99.90;;;;;;5085869;28;20232;-79
2021/03/24 05:24:57;;;;;;;70.23;39.17;;;4.60;99.90;;;;;;5085629;28;20228;-79
2021/03/24 05:27:29;;;;;;;67.00;39.40;;;4.60;99.90;;;;;;5067807;28;20208;-80
2021/03/24 05:29:59;;;;;;;74.53;41.50;;;4.60;99.90;;;;;;5066535;28;20295;-78
2021/03/24 05:32:30;;;;;;;71.33;42.00;;;4.60;99.90;;;;;;5066736;28;20205;-82
2021/03/24 05:34:59;;;;;;;73.10;40.47;;;4.60;99.90;;;;;;5067511;28;20232;-78
2021/03/24 05:37:29;;;;;;;75.60;41.23;;;4.60;99.90;;;;;;5067651;28;20235;-82
2021/03/24 05:40:08;;;;;;;70.57;40.90;;;4.60;99.90;;;;;;5067197;28;20432;-81
2021/03/24 05:42:48;;;;;;;77.73;39.70;;;4.60;99.90;;;;;;5066250;28;20271;-81
2021/03/24 05:45:30;;;;;;;75.53;40.73;;;4.60;99.90;;;;;;5066839;28;20274;-79
2021/03/24 05:48:27;;;;;;;73.00;41.40;;;4.60;99.90;;;;;;5067001;28;20193;-83
2021/03/24 05:51:07;;;;;;;84.57;44.83;;;4.60;99.90;;;;;;5080106;28;20216;-78
2021/03/24 05:53:49;;;;;;;75.73;42.77;;;4.60;99.90;;;;;;5086470;28;20200;-82
2021/03/24 05:56:23;;;;;;;78.07;43.37;;;4.60;99.90;;;;;;5085471;28;20270;-78
2021/03/24 05:59:01;;;;;;;82.33;46.07;;;4.60;99.90;;;;;;5069768;28;20205;-81
2021/03/24 06:01:31;;;;;;;85.40;45.47;;;4.60;99.90;;;;;;5065251;28;20197;-78
2021/03/24 06:04:21;;;;;;;81.53;44.07;;;4.60;99.90;;;;;;5064523;28;20225;-78
2021/03/24 06:07:31;;;;;;;86.43;44.93;;;4.70;99.90;;;;;;5070985;28;20212;-78
2021/03/24 06:10:15;;;;;;;77.27;42.77;;;4.70;99.90;;;;;;5067061;28;20212;-80
2021/03/24 06:13:12;;;;;;;84.63;45.47;;;4.70;99.90;;;;;;5074429;28;20215;-84
2021/03/24 06:16:29;;;;;;;90.07;46.30;;;4.70;99.90;;;;;;5088274;28;20305;-80
2021/03/24 06:19:04;;;;;;;83.47;44.70;;;4.70;99.90;;;;;;4967937;28;20216;-82
2021/03/24 06:21:35;;;;;;;82.73;42.53;;;4.70;99.90;;;;;;4966248;28;20319;-83
2021/03/24 06:24:19;;;;;;;92.30;47.77;;;4.70;99.90;;;;;;5030015;28;20201;-82
2021/03/24 06:27:00;;;;;;;83.33;42.83;;;4.80;99.90;;;;;;5066852;28;20558;-84
2021/03/24 06:29:40;;;;;;;84.80;43.60;;;4.80;99.90;;;;;;5084950;28;20193;-78
2021/03/24 06:32:21;;;;;;;87.07;44.03;;;4.80;99.90;;;;;;5084993;28;20323;-79
2021/03/24 06:35:09;;;;;;;93.37;47.27;;;4.80;99.90;;;;;;5078595;28;20208;-78
2021/03/24 06:37:49;;;;;;;82.33;43.00;;;4.90;99.90;;;;;;5064561;28;20289;-80
2021/03/24 06:40:42;;;;;;;86.03;43.80;;;4.90;99.90;;;;;;5064017;28;20189;-80
2021/03/24 06:43:22;;;;;;;85.20;45.10;;;5.00;99.90;;;;;;5064118;28;20248;-78
2021/03/24 06:45:59;;;;;;;81.13;44.90;;;5.00;99.90;;;;;;5063773;28;20797;-80
2021/03/24 06:48:50;;;;;;;88.00;45.63;;;5.10;99.90;;;;;;5064608;28;20209;-78
2021/03/24 06:52:06;;;;;;;89.60;43.77;;;5.10;99.90;;;;;;5080651;28;20510;-80
2021/03/24 06:55:23;;;;;;;88.33;45.57;;;5.20;99.90;;;;;;5084802;28;20193;-78
2021/03/24 06:58:25;;;;;;;83.03;43.77;;;5.30;99.90;;;;;;5064345;28;20525;-77
2021/03/24 07:01:17;;;;;;;86.47;45.93;;;5.40;99.90;;;;;;5044282;28;20212;-78
2021/03/24 07:04:11;;;;;;;83.53;43.27;;;5.50;99.90;;;;;;5064059;28;20268;-78
2021/03/24 07:06:54;;;;;;;90.30;43.93;;;5.60;99.90;;;;;;5066972;28;20234;-79
2021/03/24 07:09:31;;;;;;;85.70;42.27;;;5.60;99.90;;;;;;5071880;28;20212;-78
2021/03/24 07:12:18;;;;;;;79.27;43.13;;;5.70;99.90;;;;;;5065293;28;20207;-82
2021/03/24 07:15:16;;;;;;;87.77;44.37;;;5.80;99.90;;;;;;5064072;28;20197;-78
2021/03/24 07:18:22;;;;;;;84.73;44.10;;;5.90;99.90;;;;;;5063783;28;20193;-78
2021/03/24 07:21:14;;;;;;;86.50;44.93;;;6.00;99.90;;;;;;5066771;28;20569;-81
2021/03/24 07:24:16;;;;;;;86.23;43.83;;;6.10;99.90;;;;;;5065730;28;20225;-79
2021/03/24 07:27:11;;;;;;;79.13;41.80;;;6.20;99.90;;;;;;5064270;28;20209;-82
2021/03/24 07:30:03;;;;;;;77.53;40.40;;;6.30;99.90;;;;;;5050867;28;20193;-84
2021/03/24 07:32:39;;;;;;;76.37;40.57;;;6.40;99.90;;;;;;5065081;28;20664;-82
2021/03/24 07:35:22;;;;;;;81.20;44.13;;;6.40;99.90;;;;;;5069330;28;20270;-86
2021/03/24 07:38:15;;;;;;;75.73;40.77;;;6.50;99.90;;;;;;5067162;28;20209;-82
2021/03/24 07:41:11;;;;;;;81.80;42.03;;;6.60;99.90;;;;;;5068486;28;20194;-79
2021/03/24 07:43:49;;;;;;;77.10;42.03;;;6.70;99.90;;;;;;5067297;28;20225;-80
2021/03/24 07:46:45;;;;;;;70.07;38.70;;;6.80;99.90;;;;;;5068891;28;20247;-84
2021/03/24 07:49:46;;;;;;;76.37;40.07;;;6.90;99.90;;;;;;5073328;28;20216;-80
2021/03/24 07:52:51;;;;;;;72.67;38.40;;;7.00;99.90;;;;;;4987774;28;20268;-85
2021/03/24 07:55:26;;;;;;;67.23;36.80;;;7.10;99.90;;;;;;5068717;28;20232;-83
2021/03/24 07:58:05;;;;;;;69.00;37.80;;;7.20;99.90;;;;;;5055782;28;20188;-87
2021/03/24 08:00:36;;;;;;;60.20;36.97;;;7.30;99.90;;;;;;5069534;28;20193;-85
2021/03/24 08:03:08;;;;;;;64.10;36.70;;;7.30;99.90;;;;;;5066660;28;20248;-86
2021/03/24 08:06:01;;;;;;;56.63;34.50;;;7.40;99.90;;;;;;5067478;28;20205;-85
2021/03/24 08:08:42;;;;;;;60.13;36.13;;;7.50;99.90;;;;;;5088738;28;20284;-87
2021/03/24 08:11:18;;;;;;;55.67;32.97;;;7.60;99.90;;;;;;5077828;28;20209;-81
2021/03/24 08:14:02;;;;;;;57.80;33.57;;;7.70;99.90;;;;;;5063673;28;20224;-83
2021/03/24 08:16:56;;;;;;;61.97;35.77;;;7.70;99.90;;;;;;5067514;28;20224;-81
2021/03/24 08:19:46;;;;;;;53.97;32.23;;;7.90;99.90;;;;;;5082989;28;20197;-79
2021/03/24 08:22:28;;;;;;;54.83;33.63;;;7.90;99.90;;;;;;5087698;28;20232;-79
2021/03/24 08:25:07;;;;;;;52.47;31.10;;;8.00;99.90;;;;;;5088129;28;20204;-81
2021/03/24 08:27:42;;;;;;;52.03;33.03;;;8.10;99.90;;;;;;5087110;28;20193;-83
2021/03/24 08:30:19;;;;;;;50.23;30.87;;;8.30;99.90;;;;;;5075704;28;20640;-83
2021/03/24 08:33:22;;;;;;;48.53;30.60;;;8.40;99.90;;;;;;5069238;28;20220;-86
2021/03/24 08:36:07;;;;;;;52.83;31.63;;;8.50;99.90;;;;;;5066887;28;20639;-85
2021/03/24 08:39:01;;;;;;;46.73;29.27;;;8.70;99.90;;;;;;5066147;28;20209;-84
2021/03/24 08:42:09;;;;;;;52.93;31.00;;;8.80;99.90;;;;;;5016770;28;20197;-81
2021/03/24 08:44:45;;;;;;;48.33;28.40;;;9.00;99.90;;;;;;5084218;28;20201;-81
2021/03/24 08:47:16;;;;;;;47.57;29.27;;;9.10;99.90;;;;;;5076375;28;20738;-83
2021/03/24 08:49:48;;;;;;;51.27;29.63;;;9.40;99.90;;;;;;5066593;28;20320;-82
2021/03/24 08:52:28;;;;;;;47.87;28.50;;;9.60;99.90;;;;;;5085717;28;20240;-81
2021/03/24 08:55:23;;;;;;;52.17;28.57;;;9.70;99.90;;;;;;5071455;28;20213;-81
2021/03/24 08:58:08;;;;;;;48.80;27.53;;;9.90;99.90;;;;;;5068589;28;20204;-82
2021/03/24 09:00:47;;;;;;;43.20;26.93;;;10.10;99.90;;;;;;5066468;28;20193;-84
2021/03/24 09:03:46;;;;;;;47.43;28.27;;;10.30;99.90;;;;;;5066530;28;20225;-81
2021/03/24 09:06:19;;;;;;;45.90;27.00;;;10.40;99.90;;;;;;5067091;28;20193;-82
2021/03/24 09:08:54;;;;;;;44.40;26.50;;;10.60;99.90;;;;;;5088753;28;20236;-80
2021/03/24 09:11:35;;;;;;;39.20;25.30;;;10.70;99.90;;;;;;5070931;28;20231;-85
2021/03/24 09:14:12;;;;;;;41.17;25.30;;;10.90;99.90;;;;;;5086292;28;20246;-84
2021/03/24 09:17:22;;;;;;;43.00;25.87;;;10.90;99.90;;;;;;5082282;28;20288;-82
2021/03/24 09:20:19;;;;;;;38.10;24.67;;;11.00;99.90;;;;;;5067385;28;20208;-85
2021/03/24 09:22:57;;;;;;;41.90;26.00;;;11.10;99.90;;;;;;5068200;28;20286;-84
2021/03/24 09:25:33;;;;;;;39.93;24.67;;;11.30;99.90;;;;;;5085417;28;20207;-82
2021/03/24 09:28:31;;;;;;;38.87;25.10;;;11.30;99.90;;;;;;5091570;28;20208;-85
2021/03/24 09:31:31;;;;;;;41.17;26.57;;;11.50;99.90;;;;;;5080887;28;20208;-85
2021/03/24 09:34:00;;;;;;;41.03;26.13;;;11.60;99.90;;;;;;5070429;28;20196;-79
2021/03/24 09:37:05;;;;;;;48.77;27.40;;;11.70;99.90;;;;;;5069463;28;20209;-79
2021/03/24 09:39:42;;;;;;;47.10;26.60;;;11.80;99.90;;;;;;4969389;28;20201;-84
2021/03/24 09:42:19;;;;;;;40.17;26.00;;;11.90;99.90;;;;;;5052926;28;20205;-80
2021/03/24 09:44:57;;;;;;;43.37;26.13;;;11.90;99.90;;;;;;5085099;28;20212;-83
2021/03/24 09:47:30;;;;;;;42.17;26.27;;;12.00;99.90;;;;;;5091190;28;20210;-85
2021/03/24 09:50:07;;;;;;;49.80;27.87;;;12.10;99.90;;;;;;5090360;28;20193;-79
2021/03/24 09:52:36;;;;;;;44.23;27.13;;;12.30;99.90;;;;;;5086480;28;20240;-86
2021/03/24 09:55:20;;;;;;;40.27;25.93;;;12.50;99.90;;;;;;5070925;28;20193;-84
2021/03/24 09:58:14;;;;;;;43.93;26.57;;;12.60;99.90;;;;;;5069532;28;20204;-80
2021/03/24 10:00:57;;;;;;;37.63;25.27;;;12.80;99.90;;;;;;5068890;28;20202;-84
2021/03/24 10:03:36;;;;;;;37.17;24.23;;;13.00;99.90;;;;;;5069507;28;20910;-84
2021/03/24 10:06:06;;;;;;;41.57;24.77;;;13.10;99.90;;;;;;5071263;28;20201;-85
2021/03/24 10:08:36;;;;;;;38.10;25.20;;;13.20;99.90;;;;;;5073856;28;20205;-86
2021/03/24 10:11:06;;;;;;;38.00;25.17;;;13.40;99.90;;;;;;5089562;28;20207;-84
2021/03/24 10:13:39;;;;;;;47.57;28.07;;;13.50;99.90;;;;;;5075914;28;20593;-81
2021/03/24 10:16:15;;;;;;;39.70;26.47;;;13.60;99.90;;;;;;5068590;28;20304;-86
2021/03/24 10:18:46;;;;;;;38.03;24.30;;;13.70;99.90;;;;;;5070168;28;20197;-87
2021/03/24 10:21:18;;;;;;;38.57;24.47;;;13.70;99.90;;;;;;5070007;28;20201;-82
2021/03/24 10:23:48;;;;;;;39.67;25.93;;;13.60;99.90;;;;;;5066208;28;20225;-79
2021/03/24 10:26:18;;;;;;;38.60;25.83;;;13.70;99.90;;;;;;5068099;28;20213;-85
2021/03/24 10:28:50;;;;;;;40.47;26.80;;;13.80;99.90;;;;;;5068396;28;20224;-85
2021/03/24 10:31:21;;;;;;;38.83;25.57;;;14.00;99.90;;;;;;5068675;28;20593;-85
2021/03/24 10:33:52;;;;;;;40.50;25.30;;;14.10;99.90;;;;;;5066612;28;20204;-81
2021/03/24 10:36:28;;;;;;;39.17;26.00;;;14.20;99.90;;;;;;5068320;28;20247;-85
2021/03/24 10:39:03;;;;;;;37.40;24.83;;;14.40;99.90;;;;;;5066526;28;20327;-82
2021/03/24 10:41:43;;;;;;;44.63;26.93;;;14.60;99.90;;;;;;5067064;28;20216;-80
2021/03/24 10:44:16;;;;;;;39.07;25.30;;;14.70;99.90;;;;;;5084596;28;20228;-83
2021/03/24 10:46:50;;;;;;;42.10;25.87;;;14.80;99.90;;;;;;5087226;28;20655;-79
2021/03/24 10:49:22;;;;;;;37.13;23.80;;;14.90;99.90;;;;;;5086744;28;20238;-81
2021/03/24 10:52:00;;;;;;;40.17;24.37;;;15.00;99.90;;;;;;5066858;28;20237;-80
2021/03/24 10:54:31;;;;;;;37.10;24.57;;;15.20;99.90;;;;;;5066577;28;20795;-80
2021/03/24 10:57:07;;;;;;;40.27;24.77;;;15.20;99.90;;;;;;5066149;28;20839;-81
2021/03/24 10:59:39;;;;;;;33.37;23.43;;;15.20;99.90;;;;;;5065086;28;20691;-79
2021/03/24 11:02:21;;;;;;;39.23;24.87;;;15.30;99.90;;;;;;5065981;28;20229;-79
2021/03/24 11:04:54;;;;;;;36.53;24.77;;;15.20;99.90;;;;;;5074539;28;20212;-80
2021/03/24 11:07:31;;;;;;;40.63;24.13;;;14.90;99.90;;;;;;5075522;28;20224;-78
2021/03/24 11:10:01;;;;;;;37.67;24.40;;;14.80;99.90;;;;;;5066452;28;20205;-85
2021/03/24 11:12:36;;;;;;;40.23;24.87;;;14.90;99.90;;;;;;5065083;28;20201;-79
2021/03/24 11:15:07;;;;;;;33.63;23.53;;;15.00;99.90;;;;;;5067482;28;20196;-82
2021/03/24 11:17:38;;;;;;;36.90;22.67;;;15.10;99.90;;;;;;5066052;28;20209;-84
2021/03/24 11:20:10;;;;;;;34.53;24.43;;;15.10;99.90;;;;;;5069695;28;20500;-85
2021/03/24 11:22:50;;;;;;;38.50;24.23;;;15.10;99.90;;;;;;5068842;28;20253;-82
2021/03/24 11:25:22;;;;;;;37.30;25.10;;;15.10;99.90;;;;;;5067223;28;20305;-84
2021/03/24 11:27:53;;;;;;;42.17;23.93;;;15.10;99.90;;;;;;5068515;28;20193;-82
2021/03/24 11:30:27;;;;;;;36.53;23.63;;;15.10;99.90;;;;;;5068086;28;20412;-83
2021/03/24 11:33:17;;;;;;;36.80;24.17;;;15.10;99.90;;;;;;5073154;28;20253;-84
2021/03/24 11:35:58;;;;;;;37.77;24.97;;;15.20;99.90;;;;;;5083078;28;20254;-83
2021/03/24 11:38:36;;;;;;;37.70;24.30;;;15.30;99.90;;;;;;5086423;28;20196;-86
2021/03/24 11:41:08;;;;;;;39.53;25.60;;;15.40;99.90;;;;;;5066896;28;20185;-83
2021/03/24 11:43:38;;;;;;;37.63;23.93;;;15.40;99.90;;;;;;5066379;28;20225;-80
2021/03/24 11:46:25;;;;;;;40.63;25.30;;;15.50;99.90;;;;;;5066484;28;20258;-82
2021/03/24 11:49:19;;;;;;;40.33;24.87;;;15.30;99.90;;;;;;5066902;28;20193;-81
2021/03/24 11:51:58;;;;;;;37.97;24.53;;;15.20;99.90;;;;;;5059419;28;20666;-83
2021/03/24 11:54:32;;;;;;;37.53;24.77;;;15.10;99.90;;;;;;5065975;28;20250;-80
2021/03/24 11:57:20;;;;;;;40.20;25.57;;;15.20;99.90;;;;;;5063168;28;20201;-81
2021/03/24 11:59:57;;;;;;;33.80;22.70;;;15.10;99.90;;;;;;5063251;28;20194;-83
2021/03/24 12:02:39;;;;;;;36.17;23.70;;;15.00;99.90;;;;;;5086162;28;20224;-84
2021/03/24 12:05:16;;;;;;;36.83;25.03;;;14.90;99.90;;;;;;5091797;28;20254;-85
2021/03/24 12:08:00;;;;;;;38.00;24.53;;;14.80;99.90;;;;;;5079090;28;20299;-82
2021/03/24 12:10:32;;;;;;;35.10;23.50;;;14.70;99.90;;;;;;5070869;28;20193;-80
2021/03/24 12:13:08;;;;;;;39.30;26.07;;;14.80;99.90;;;;;;5071638;28;20577;-81
2021/03/24 12:15:36;;;;;;;32.97;23.67;;;15.00;99.90;;;;;;5068681;28;20200;-82
2021/03/24 12:18:09;;;;;;;36.30;24.13;;;15.10;99.90;;;;;;5071465;28;20202;-84
2021/03/24 12:20:54;;;;;;;37.77;26.17;;;15.20;99.90;;;;;;5069903;28;20260;-84
2021/03/24 12:23:22;;;;;;;33.20;22.37;;;15.20;99.90;;;;;;5083379;28;20220;-82
2021/03/24 12:25:52;;;;;;;39.03;25.07;;;15.30;99.90;;;;;;5075238;28;20205;-85
2021/03/24 12:28:28;;;;;;;33.63;22.83;;;15.40;99.90;;;;;;5070880;28;20205;-83
2021/03/24 12:31:04;;;;;;;38.27;23.03;;;15.60;99.90;;;;;;5070174;28;20204;-86
2021/03/24 12:33:32;;;;;;;33.30;21.57;;;15.60;99.90;;;;;;5069353;28;20624;-80
2021/03/24 12:36:06;;;;;;;33.43;21.33;;;15.60;99.90;;;;;;5072397;28;20194;-84
2021/03/24 12:38:42;;;;;;;32.50;21.63;;;15.70;99.90;;;;;;5070221;28;20212;-78
2021/03/24 12:41:10;;;;;;;30.83;20.37;;;15.80;99.90;;;;;;5071710;28;20840;-84
2021/03/24 12:43:38;;;;;;;26.50;20.17;;;15.90;99.90;;;;;;5070668;28;20651;-85
2021/03/24 12:46:11;;;;;;;30.57;20.07;;;15.80;99.90;;;;;;5071448;28;20580;-78
2021/03/24 12:48:37;;;;;;;32.00;19.60;;;15.80;99.90;;;;;;5071497;28;20198;-84
2021/03/24 12:51:10;;;;;;;23.30;16.63;;;15.70;99.90;;;;;;5071607;28;20237;-83
2021/03/24 12:53:42;;;;;;;31.63;18.57;;;15.50;99.90;;;;;;5072356;28;20254;-84
2021/03/24 12:56:35;;;;;;;34.20;21.83;;;15.50;99.90;;;;;;5080736;28;20293;-79
2021/03/24 12:59:08;;;;;;;29.97;20.60;;;15.30;99.90;;;;;;5067211;28;20262;-79
2021/03/24 13:01:44;;;;;;;32.90;20.80;;;15.30;99.90;;;;;;5066922;28;20258;-79
2021/03/24 13:04:48;;;;;;;31.43;21.57;;;15.20;99.90;;;;;;5066721;28;20241;-80
2021/03/24 13:07:26;;;;;;;35.93;23.17;;;15.10;99.90;;;;;;5076517;28;20281;-78
2021/03/24 13:10:24;;;;;;;33.93;21.00;;;15.00;99.90;;;;;;5073189;28;20208;-79
2021/03/24 13:12:59;;;;;;;32.40;22.37;;;15.10;99.90;;;;;;5046840;28;20586;-84
2021/03/24 13:15:31;;;;;;;34.10;21.53;;;15.10;99.90;;;;;;5065095;28;20201;-80
2021/03/24 13:18:06;;;;;;;38.07;23.83;;;15.00;99.90;;;;;;5087006;28;20197;-80